LGL431 ELLX-LFBZ
Flight info
| Callsign | LGL431 |
|---|---|
| Flight time | 1h 43m |
| Altitude | 23000 |
| Route | GTQ G21 RLP/N0317F190 G21 LMG R10 MAGEC |
| Aircraft | DH8D/M-SDE2E3FGRY/H |
Departure
| Time | 2026-04-26 17:00 |
|---|---|
| Airport | Luxembourg-Findel International Airport (ELLX) |
Arrival
| Time | 2026-04-26 18:43 |
|---|---|
| Airport | Biarritz Pays Basque airport (LFBZ) |
| Time | Latitude | Longitude | Altitude | Speed | Heading |
|---|---|---|---|---|---|
| 2026-04-26 16:09 | 49.63155 | 6.21500 | 1232 ft | 0 kts | 242° |
| 2026-04-26 16:31 | 49.63154 | 6.21499 | 1232 ft | 0 kts | 242° |
| 2026-04-26 16:31 | 49.63157 | 6.21507 | 1232 ft | 2 kts | 242° |
| 2026-04-26 16:32 | 49.63164 | 6.21527 | 1232 ft | 2 kts | 241° |
| 2026-04-26 16:32 | 49.63166 | 6.21534 | 1231 ft | 1 kts | 241° |
| 2026-04-26 16:32 | 49.63180 | 6.21554 | 1231 ft | 2 kts | 199° |
| 2026-04-26 16:32 | 49.63194 | 6.21556 | 1232 ft | 2 kts | 169° |
| 2026-04-26 16:33 | 49.63205 | 6.21550 | 1232 ft | 1 kts | 148° |
| 2026-04-26 16:33 | 49.63206 | 6.21550 | 1232 ft | 0 kts | 148° |
| 2026-04-26 16:48 | 49.63205 | 6.21550 | 1232 ft | 1 kts | 148° |
| 2026-04-26 16:48 | 49.63164 | 6.21587 | 1229 ft | 11 kts | 148° |
| 2026-04-26 16:48 | 49.63105 | 6.21639 | 1225 ft | 0 kts | 147° |
| 2026-04-26 16:49 | 49.63097 | 6.21647 | 1224 ft | 3 kts | 153° |
| 2026-04-26 16:49 | 49.63071 | 6.21629 | 1224 ft | 6 kts | 246° |
| 2026-04-26 16:49 | 49.63043 | 6.21534 | 1225 ft | 12 kts | 247° |
| 2026-04-26 16:50 | 49.63036 | 6.21510 | 1225 ft | 13 kts | 245° |
| 2026-04-26 16:50 | 49.62995 | 6.21408 | 1226 ft | 20 kts | 232° |
| 2026-04-26 16:50 | 49.62933 | 6.21193 | 1232 ft | 16 kts | 252° |
| 2026-04-26 16:50 | 49.62893 | 6.21054 | 1234 ft | 12 kts | 243° |
| 2026-04-26 16:51 | 49.62857 | 6.20946 | 1234 ft | 10 kts | 243° |
| 2026-04-26 16:51 | 49.62829 | 6.20858 | 1235 ft | 8 kts | 243° |
| 2026-04-26 16:51 | 49.62802 | 6.20782 | 1234 ft | 9 kts | 228° |
| 2026-04-26 16:51 | 49.62751 | 6.20709 | 1231 ft | 10 kts | 223° |
| 2026-04-26 16:52 | 49.62698 | 6.20632 | 1229 ft | 10 kts | 224° |
| 2026-04-26 16:52 | 49.62660 | 6.20573 | 1227 ft | 12 kts | 227° |
| 2026-04-26 16:52 | 49.62569 | 6.20414 | 1223 ft | 16 kts | 228° |
| 2026-04-26 16:52 | 49.62485 | 6.20247 | 1218 ft | 25 kts | 237° |
| 2026-04-26 16:53 | 49.62396 | 6.20006 | 1207 ft | 25 kts | 241° |
| 2026-04-26 16:53 | 49.62319 | 6.19805 | 1199 ft | 21 kts | 238° |
| 2026-04-26 16:53 | 49.62242 | 6.19597 | 1188 ft | 21 kts | 239° |
| 2026-04-26 16:53 | 49.62165 | 6.19389 | 1177 ft | 22 kts | 240° |
| 2026-04-26 16:54 | 49.62089 | 6.19181 | 1167 ft | 22 kts | 240° |
| 2026-04-26 16:54 | 49.62014 | 6.18983 | 1161 ft | 20 kts | 239° |
| 2026-04-26 16:54 | 49.61937 | 6.18800 | 1153 ft | 16 kts | 220° |
| 2026-04-26 16:54 | 49.61905 | 6.18761 | 1151 ft | 0 kts | 217° |
| 2026-04-26 16:57 | 49.61877 | 6.18729 | 1149 ft | 10 kts | 214° |
| 2026-04-26 16:57 | 49.61779 | 6.18820 | 1151 ft | 5 kts | 81° |
| 2026-04-26 16:58 | 49.61789 | 6.18851 | 1152 ft | 1 kts | 60° |
| 2026-04-26 16:58 | 49.61791 | 6.18854 | 1152 ft | 0 kts | 60° |
| 2026-04-26 16:58 | 49.61873 | 6.19080 | 1161 ft | 62 kts | 59° |
| 2026-04-26 16:59 | 49.62221 | 6.20009 | 1206 ft | 133 kts | 60° |
| 2026-04-26 16:59 | 49.63263 | 6.23014 | 1792 ft | 177 kts | 63° |
| 2026-04-26 17:00 | 49.64391 | 6.26398 | 3205 ft | 180 kts | 66° |
| 2026-04-26 17:00 | 49.63514 | 6.29748 | 4396 ft | 193 kts | 137° |
| 2026-04-26 17:00 | 49.62480 | 6.31088 | 5017 ft | 197 kts | 137° |
| 2026-04-26 17:01 | 49.61436 | 6.32431 | 5646 ft | 200 kts | 138° |
| 2026-04-26 17:01 | 49.60367 | 6.33799 | 6286 ft | 203 kts | 139° |
| 2026-04-26 17:01 | 49.59289 | 6.35178 | 6914 ft | 205 kts | 139° |
| 2026-04-26 17:01 | 49.58200 | 6.36571 | 7573 ft | 206 kts | 139° |
| 2026-04-26 17:02 | 49.57097 | 6.37980 | 8245 ft | 208 kts | 139° |
| 2026-04-26 17:02 | 49.55977 | 6.39388 | 8898 ft | 210 kts | 142° |
| 2026-04-26 17:02 | 49.54718 | 6.40470 | 9516 ft | 211 kts | 155° |
| 2026-04-26 17:02 | 49.53376 | 6.41388 | 10123 ft | 211 kts | 155° |
| 2026-04-26 17:03 | 49.52048 | 6.42296 | 10718 ft | 212 kts | 155° |
| 2026-04-26 17:03 | 49.50707 | 6.43215 | 11323 ft | 213 kts | 155° |
| 2026-04-26 17:03 | 49.49345 | 6.44150 | 11926 ft | 215 kts | 155° |
| 2026-04-26 17:03 | 49.47984 | 6.45086 | 12539 ft | 217 kts | 155° |
| 2026-04-26 17:04 | 49.46592 | 6.46045 | 12982 ft | 230 kts | 155° |
| 2026-04-26 17:04 | 49.45056 | 6.47107 | 13122 ft | 255 kts | 155° |
| 2026-04-26 17:04 | 49.43388 | 6.48265 | 13403 ft | 272 kts | 155° |
| 2026-04-26 17:04 | 49.41651 | 6.49472 | 14036 ft | 273 kts | 155° |
| 2026-04-26 17:05 | 49.39939 | 6.50661 | 14694 ft | 269 kts | 155° |
| 2026-04-26 17:05 | 49.38280 | 6.51816 | 15271 ft | 263 kts | 155° |
| 2026-04-26 17:05 | 49.36632 | 6.52957 | 15790 ft | 258 kts | 156° |
| 2026-04-26 17:05 | 49.34991 | 6.54090 | 16100 ft | 265 kts | 156° |
| 2026-04-26 17:06 | 49.33286 | 6.55267 | 16397 ft | 268 kts | 156° |
| 2026-04-26 17:06 | 49.31585 | 6.56440 | 16701 ft | 272 kts | 156° |
| 2026-04-26 17:06 | 49.29861 | 6.57628 | 17078 ft | 273 kts | 156° |
| 2026-04-26 17:06 | 49.28115 | 6.58830 | 17418 ft | 275 kts | 156° |
| 2026-04-26 17:07 | 49.26390 | 6.60018 | 17772 ft | 276 kts | 155° |
| 2026-04-26 17:07 | 49.24630 | 6.61228 | 18101 ft | 278 kts | 156° |
| 2026-04-26 17:07 | 49.22839 | 6.62382 | 18399 ft | 279 kts | 162° |
| 2026-04-26 17:07 | 49.20985 | 6.63167 | 18695 ft | 281 kts | 167° |
| 2026-04-26 17:08 | 49.19089 | 6.63875 | 19029 ft | 282 kts | 167° |
| 2026-04-26 17:08 | 49.17157 | 6.64597 | 19301 ft | 285 kts | 167° |
| 2026-04-26 17:08 | 49.15230 | 6.65320 | 19617 ft | 285 kts | 168° |
| 2026-04-26 17:08 | 49.13296 | 6.66047 | 19880 ft | 287 kts | 168° |
| 2026-04-26 17:09 | 49.11366 | 6.66774 | 20146 ft | 290 kts | 168° |
| 2026-04-26 17:09 | 49.10048 | 6.67271 | 20332 ft | 290 kts | 168° |
| 2026-04-26 17:09 | 49.07449 | 6.68253 | 20669 ft | 291 kts | 168° |
| 2026-04-26 17:09 | 49.05484 | 6.68994 | 20909 ft | 293 kts | 168° |
| 2026-04-26 17:10 | 49.03504 | 6.69742 | 21139 ft | 294 kts | 168° |
| 2026-04-26 17:10 | 49.01519 | 6.70492 | 21365 ft | 295 kts | 168° |
| 2026-04-26 17:10 | 48.99508 | 6.71084 | 21565 ft | 294 kts | 181° |
| 2026-04-26 17:10 | 48.97562 | 6.70388 | 21650 ft | 286 kts | 212° |
| 2026-04-26 17:11 | 48.95878 | 6.68822 | 21847 ft | 285 kts | 217° |
| 2026-04-26 17:11 | 48.94213 | 6.67188 | 22061 ft | 285 kts | 218° |
| 2026-04-26 17:11 | 48.92563 | 6.65564 | 22254 ft | 286 kts | 218° |
| 2026-04-26 17:11 | 48.90890 | 6.63917 | 22452 ft | 287 kts | 218° |
| 2026-04-26 17:12 | 48.87537 | 6.60618 | 22817 ft | 288 kts | 218° |
| 2026-04-26 17:12 | 48.85856 | 6.58966 | 22992 ft | 287 kts | 218° |
| 2026-04-26 17:13 | 48.82465 | 6.55636 | 23177 ft | 295 kts | 218° |
| 2026-04-26 17:13 | 48.80736 | 6.53938 | 23188 ft | 301 kts | 218° |
| 2026-04-26 17:13 | 48.77137 | 6.50407 | 23217 ft | 327 kts | 217° |
| 2026-04-26 17:14 | 48.75182 | 6.48477 | 23203 ft | 345 kts | 217° |
| 2026-04-26 17:14 | 48.70991 | 6.44379 | 23194 ft | 368 kts | 217° |
| 2026-04-26 17:14 | 48.68844 | 6.42266 | 23182 ft | 369 kts | 218° |
| 2026-04-26 17:15 | 48.64695 | 6.37944 | 23174 ft | 360 kts | 218° |
| 2026-04-26 17:15 | 48.62598 | 6.35873 | 23177 ft | 357 kts | 217° |
| 2026-04-26 17:15 | 48.60521 | 6.33846 | 23179 ft | 354 kts | 216° |
| 2026-04-26 17:16 | 48.58467 | 6.31841 | 23175 ft | 352 kts | 216° |
| 2026-04-26 17:16 | 48.56427 | 6.29850 | 23186 ft | 351 kts | 216° |
| 2026-04-26 17:16 | 48.54376 | 6.27849 | 23180 ft | 350 kts | 216° |
| 2026-04-26 17:16 | 48.52343 | 6.25866 | 23181 ft | 349 kts | 216° |
| 2026-04-26 17:17 | 48.50313 | 6.23888 | 23180 ft | 348 kts | 216° |
| 2026-04-26 17:17 | 48.48282 | 6.21909 | 23180 ft | 346 kts | 216° |
| 2026-04-26 17:17 | 48.46270 | 6.19952 | 23177 ft | 345 kts | 216° |
| 2026-04-26 17:17 | 48.44266 | 6.18002 | 23174 ft | 345 kts | 216° |
| 2026-04-26 17:18 | 48.42244 | 6.16036 | 23179 ft | 345 kts | 216° |
| 2026-04-26 17:18 | 48.40250 | 6.14101 | 23183 ft | 344 kts | 216° |
| 2026-04-26 17:18 | 48.38233 | 6.12144 | 23182 ft | 344 kts | 216° |
| 2026-04-26 17:18 | 48.36227 | 6.10200 | 23185 ft | 343 kts | 216° |
| 2026-04-26 17:19 | 48.32254 | 6.06287 | 23177 ft | 342 kts | 220° |
| 2026-04-26 17:19 | 48.30647 | 6.03725 | 23211 ft | 335 kts | 236° |
| 2026-04-26 17:19 | 48.29248 | 6.00932 | 23197 ft | 335 kts | 237° |
| 2026-04-26 17:20 | 48.27859 | 5.98139 | 23182 ft | 335 kts | 237° |
| 2026-04-26 17:20 | 48.26920 | 5.96254 | 23190 ft | 335 kts | 237° |
| 2026-04-26 17:20 | 48.25064 | 5.92536 | 23179 ft | 335 kts | 236° |
| 2026-04-26 17:20 | 48.23668 | 5.89748 | 23183 ft | 335 kts | 236° |
| 2026-04-26 17:21 | 48.22269 | 5.86960 | 23183 ft | 335 kts | 236° |
| 2026-04-26 17:21 | 48.20867 | 5.84173 | 23180 ft | 335 kts | 236° |
| 2026-04-26 17:21 | 48.19472 | 5.81404 | 23175 ft | 335 kts | 236° |
| 2026-04-26 17:21 | 48.18060 | 5.78605 | 23176 ft | 335 kts | 236° |
| 2026-04-26 17:22 | 48.16665 | 5.75843 | 23178 ft | 335 kts | 236° |
| 2026-04-26 17:22 | 48.15268 | 5.73081 | 23182 ft | 335 kts | 236° |
| 2026-04-26 17:22 | 48.13860 | 5.70300 | 23178 ft | 335 kts | 236° |
| 2026-04-26 17:22 | 48.12462 | 5.67544 | 23178 ft | 336 kts | 236° |
| 2026-04-26 17:23 | 48.11041 | 5.64742 | 23175 ft | 336 kts | 236° |
| 2026-04-26 17:23 | 48.09641 | 5.61989 | 23177 ft | 337 kts | 236° |
| 2026-04-26 17:23 | 48.08207 | 5.59169 | 23180 ft | 337 kts | 236° |
| 2026-04-26 17:23 | 48.06799 | 5.56405 | 23180 ft | 337 kts | 236° |
| 2026-04-26 17:24 | 48.05389 | 5.53639 | 23177 ft | 337 kts | 236° |
| 2026-04-26 17:24 | 48.03976 | 5.50870 | 23177 ft | 337 kts | 236° |
| 2026-04-26 17:24 | 48.02539 | 5.48056 | 23178 ft | 337 kts | 236° |
| 2026-04-26 17:24 | 48.01120 | 5.45282 | 23177 ft | 337 kts | 236° |
| 2026-04-26 17:25 | 47.99704 | 5.42516 | 23176 ft | 337 kts | 236° |
| 2026-04-26 17:25 | 47.98287 | 5.39751 | 23177 ft | 337 kts | 236° |
| 2026-04-26 17:25 | 47.96873 | 5.36994 | 23179 ft | 337 kts | 236° |
| 2026-04-26 17:25 | 47.95444 | 5.34213 | 23176 ft | 337 kts | 235° |
| 2026-04-26 17:26 | 47.94025 | 5.31452 | 23178 ft | 337 kts | 235° |
| 2026-04-26 17:26 | 47.92584 | 5.28651 | 23179 ft | 337 kts | 235° |
| 2026-04-26 17:26 | 47.91163 | 5.25895 | 23181 ft | 337 kts | 234° |
| 2026-04-26 17:26 | 47.89573 | 5.23311 | 23185 ft | 339 kts | 226° |
| 2026-04-26 17:27 | 47.87861 | 5.20934 | 23180 ft | 340 kts | 225° |
| 2026-04-26 17:27 | 47.86120 | 5.18537 | 23180 ft | 340 kts | 225° |
| 2026-04-26 17:27 | 47.84390 | 5.16156 | 23180 ft | 340 kts | 225° |
| 2026-04-26 17:27 | 47.82658 | 5.13772 | 23181 ft | 340 kts | 225° |
| 2026-04-26 17:28 | 47.80927 | 5.11386 | 23180 ft | 340 kts | 225° |
| 2026-04-26 17:28 | 47.79179 | 5.08978 | 23180 ft | 340 kts | 225° |
| 2026-04-26 17:28 | 47.77453 | 5.06600 | 23179 ft | 340 kts | 225° |
| 2026-04-26 17:28 | 47.75735 | 5.04235 | 23176 ft | 340 kts | 225° |
| 2026-04-26 17:29 | 47.74003 | 5.01850 | 23171 ft | 340 kts | 225° |
| 2026-04-26 17:29 | 47.72828 | 5.00233 | 23171 ft | 340 kts | 225° |
| 2026-04-26 17:29 | 47.70527 | 4.97069 | 23166 ft | 341 kts | 225° |
| 2026-04-26 17:29 | 47.68803 | 4.94701 | 23164 ft | 341 kts | 225° |
| 2026-04-26 17:30 | 47.67072 | 4.92325 | 23164 ft | 341 kts | 225° |
| 2026-04-26 17:30 | 47.65313 | 4.89914 | 23162 ft | 341 kts | 225° |
| 2026-04-26 17:30 | 47.63586 | 4.87547 | 23162 ft | 341 kts | 225° |
| 2026-04-26 17:30 | 47.61847 | 4.85167 | 23161 ft | 340 kts | 225° |
| 2026-04-26 17:31 | 47.60115 | 4.82798 | 23162 ft | 341 kts | 225° |
| 2026-04-26 17:31 | 47.58390 | 4.80441 | 23160 ft | 341 kts | 225° |
| 2026-04-26 17:31 | 47.56640 | 4.78052 | 23160 ft | 341 kts | 225° |
| 2026-04-26 17:31 | 47.54907 | 4.75688 | 23162 ft | 341 kts | 225° |
| 2026-04-26 17:32 | 47.53173 | 4.73320 | 23162 ft | 341 kts | 225° |
| 2026-04-26 17:32 | 47.51423 | 4.70931 | 23162 ft | 341 kts | 225° |
| 2026-04-26 17:32 | 47.49692 | 4.68572 | 23162 ft | 341 kts | 225° |
| 2026-04-26 17:32 | 47.47944 | 4.66190 | 23161 ft | 341 kts | 225° |
| 2026-04-26 17:33 | 47.46211 | 4.63831 | 23162 ft | 341 kts | 225° |
| 2026-04-26 17:33 | 47.44445 | 4.61431 | 23160 ft | 342 kts | 225° |
| 2026-04-26 17:33 | 47.42699 | 4.59060 | 23158 ft | 342 kts | 225° |
| 2026-04-26 17:34 | 47.39208 | 4.54326 | 23158 ft | 342 kts | 225° |
| 2026-04-26 17:34 | 47.37466 | 4.51967 | 23157 ft | 342 kts | 225° |
| 2026-04-26 17:34 | 47.35708 | 4.49587 | 23155 ft | 342 kts | 225° |
| 2026-04-26 17:34 | 47.33958 | 4.47222 | 23155 ft | 342 kts | 225° |
| 2026-04-26 17:35 | 47.32213 | 4.44866 | 23158 ft | 343 kts | 225° |
| 2026-04-26 17:35 | 47.30470 | 4.42514 | 23159 ft | 343 kts | 225° |
| 2026-04-26 17:35 | 47.28695 | 4.40122 | 23156 ft | 343 kts | 225° |
| 2026-04-26 17:35 | 47.26941 | 4.37761 | 23157 ft | 343 kts | 225° |
| 2026-04-26 17:36 | 47.25191 | 4.35406 | 23159 ft | 343 kts | 225° |
| 2026-04-26 17:36 | 47.23432 | 4.33042 | 23158 ft | 343 kts | 224° |
| 2026-04-26 17:36 | 47.21675 | 4.30683 | 23157 ft | 344 kts | 224° |
| 2026-04-26 17:36 | 47.19914 | 4.28320 | 23157 ft | 344 kts | 224° |
| 2026-04-26 17:37 | 47.18152 | 4.25958 | 23157 ft | 344 kts | 224° |
| 2026-04-26 17:37 | 47.16369 | 4.23571 | 23156 ft | 344 kts | 224° |
| 2026-04-26 17:37 | 47.14615 | 4.21225 | 23156 ft | 344 kts | 224° |
| 2026-04-26 17:38 | 47.11064 | 4.16482 | 23159 ft | 345 kts | 224° |
| 2026-04-26 17:38 | 47.09292 | 4.14118 | 23158 ft | 345 kts | 224° |
| 2026-04-26 17:38 | 47.07545 | 4.11790 | 23159 ft | 345 kts | 224° |
| 2026-04-26 17:38 | 47.05768 | 4.09423 | 23161 ft | 345 kts | 224° |
| 2026-04-26 17:39 | 47.03995 | 4.07063 | 23162 ft | 345 kts | 224° |
| 2026-04-26 17:39 | 47.02223 | 4.04706 | 23162 ft | 345 kts | 224° |
| 2026-04-26 17:39 | 47.00446 | 4.02346 | 23165 ft | 345 kts | 224° |
| 2026-04-26 17:39 | 46.98648 | 3.99959 | 23166 ft | 345 kts | 224° |
| 2026-04-26 17:40 | 46.96884 | 3.97620 | 23166 ft | 345 kts | 224° |
| 2026-04-26 17:40 | 46.95700 | 3.96050 | 23162 ft | 345 kts | 224° |
| 2026-04-26 17:40 | 46.93327 | 3.92908 | 23161 ft | 345 kts | 224° |
| 2026-04-26 17:40 | 46.91541 | 3.90547 | 23158 ft | 345 kts | 224° |
| 2026-04-26 17:41 | 46.89782 | 3.88223 | 23154 ft | 345 kts | 224° |
| 2026-04-26 17:41 | 46.87968 | 3.85829 | 23153 ft | 345 kts | 224° |
| 2026-04-26 17:41 | 46.86214 | 3.83516 | 23152 ft | 344 kts | 224° |
| 2026-04-26 17:41 | 46.84436 | 3.81174 | 23148 ft | 344 kts | 224° |
| 2026-04-26 17:42 | 46.82661 | 3.78837 | 23146 ft | 344 kts | 224° |
| 2026-04-26 17:42 | 46.80878 | 3.76493 | 23144 ft | 344 kts | 224° |
| 2026-04-26 17:42 | 46.79093 | 3.74147 | 23143 ft | 344 kts | 224° |
| 2026-04-26 17:42 | 46.77324 | 3.71825 | 23146 ft | 344 kts | 224° |
| 2026-04-26 17:43 | 46.75557 | 3.69507 | 23147 ft | 344 kts | 224° |
| 2026-04-26 17:43 | 46.73780 | 3.67179 | 23147 ft | 344 kts | 224° |
| 2026-04-26 17:43 | 46.72007 | 3.64858 | 23148 ft | 344 kts | 224° |
| 2026-04-26 17:43 | 46.70428 | 3.62264 | 23125 ft | 340 kts | 241° |
| 2026-04-26 17:44 | 46.69374 | 3.59239 | 23141 ft | 339 kts | 247° |
| 2026-04-26 17:44 | 46.68364 | 3.56122 | 23148 ft | 339 kts | 247° |
| 2026-04-26 17:44 | 46.67362 | 3.53022 | 23151 ft | 339 kts | 247° |
| 2026-04-26 17:44 | 46.66363 | 3.49943 | 23149 ft | 339 kts | 247° |
| 2026-04-26 17:45 | 46.65358 | 3.46854 | 23148 ft | 339 kts | 247° |
| 2026-04-26 17:45 | 46.64350 | 3.43763 | 23146 ft | 339 kts | 247° |
| 2026-04-26 17:45 | 46.63342 | 3.40670 | 23147 ft | 339 kts | 247° |
| 2026-04-26 17:45 | 46.62332 | 3.37578 | 23147 ft | 340 kts | 247° |
| 2026-04-26 17:46 | 46.61320 | 3.34485 | 23146 ft | 340 kts | 246° |
| 2026-04-26 17:46 | 46.60305 | 3.31388 | 23146 ft | 340 kts | 246° |
| 2026-04-26 17:46 | 46.59277 | 3.28255 | 23147 ft | 340 kts | 246° |
| 2026-04-26 17:46 | 46.58270 | 3.25191 | 23145 ft | 341 kts | 246° |
| 2026-04-26 17:47 | 46.57249 | 3.22090 | 23147 ft | 341 kts | 246° |
| 2026-04-26 17:47 | 46.56569 | 3.20030 | 23147 ft | 341 kts | 246° |
| 2026-04-26 17:47 | 46.55199 | 3.15894 | 23148 ft | 341 kts | 246° |
| 2026-04-26 17:47 | 46.54176 | 3.12814 | 23146 ft | 341 kts | 246° |
| 2026-04-26 17:48 | 46.53145 | 3.09707 | 23146 ft | 341 kts | 246° |
| 2026-04-26 17:48 | 46.52115 | 3.06604 | 23143 ft | 341 kts | 246° |
| 2026-04-26 17:48 | 46.51094 | 3.03532 | 23146 ft | 341 kts | 246° |
| 2026-04-26 17:48 | 46.50064 | 3.00444 | 23149 ft | 341 kts | 246° |
| 2026-04-26 17:49 | 46.49020 | 2.97314 | 23145 ft | 341 kts | 246° |
| 2026-04-26 17:49 | 46.48000 | 2.94263 | 23148 ft | 341 kts | 246° |
| 2026-04-26 17:49 | 46.46957 | 2.91145 | 23149 ft | 341 kts | 246° |
| 2026-04-26 17:49 | 46.45922 | 2.88055 | 23149 ft | 341 kts | 246° |
| 2026-04-26 17:50 | 46.44889 | 2.84973 | 23147 ft | 342 kts | 246° |
| 2026-04-26 17:50 | 46.43854 | 2.81892 | 23146 ft | 342 kts | 246° |
| 2026-04-26 17:50 | 46.42813 | 2.78797 | 23147 ft | 342 kts | 246° |
| 2026-04-26 17:50 | 46.41778 | 2.75720 | 23151 ft | 342 kts | 246° |
| 2026-04-26 17:51 | 46.40734 | 2.72622 | 23150 ft | 342 kts | 246° |
| 2026-04-26 17:51 | 46.39699 | 2.69552 | 23149 ft | 342 kts | 246° |
| 2026-04-26 17:51 | 46.38652 | 2.66451 | 23151 ft | 341 kts | 246° |
| 2026-04-26 17:51 | 46.37624 | 2.63410 | 23149 ft | 341 kts | 246° |
| 2026-04-26 17:52 | 46.36572 | 2.60303 | 23153 ft | 341 kts | 246° |
| 2026-04-26 17:52 | 46.35528 | 2.57221 | 23152 ft | 341 kts | 246° |
| 2026-04-26 17:52 | 46.34489 | 2.54155 | 23152 ft | 341 kts | 246° |
| 2026-04-26 17:52 | 46.33456 | 2.51108 | 23151 ft | 341 kts | 246° |
| 2026-04-26 17:53 | 46.32413 | 2.48038 | 23151 ft | 341 kts | 246° |
| 2026-04-26 17:53 | 46.31366 | 2.44958 | 23152 ft | 341 kts | 246° |
| 2026-04-26 17:53 | 46.30325 | 2.41901 | 23154 ft | 340 kts | 246° |
| 2026-04-26 17:54 | 46.28232 | 2.35763 | 23154 ft | 340 kts | 246° |
| 2026-04-26 17:54 | 46.27189 | 2.32711 | 23155 ft | 340 kts | 245° |
| 2026-04-26 17:54 | 46.26144 | 2.29654 | 23154 ft | 340 kts | 245° |
| 2026-04-26 17:54 | 46.25095 | 2.26592 | 23153 ft | 340 kts | 246° |
| 2026-04-26 17:55 | 46.24056 | 2.23561 | 23155 ft | 340 kts | 245° |
| 2026-04-26 17:55 | 46.23003 | 2.20492 | 23155 ft | 340 kts | 245° |
| 2026-04-26 17:55 | 46.21960 | 2.17458 | 23157 ft | 340 kts | 245° |
| 2026-04-26 17:55 | 46.20910 | 2.14407 | 23157 ft | 340 kts | 245° |
| 2026-04-26 17:56 | 46.19853 | 2.11339 | 23157 ft | 340 kts | 245° |
| 2026-04-26 17:56 | 46.17761 | 2.05278 | 23157 ft | 339 kts | 245° |
| 2026-04-26 17:57 | 46.15653 | 1.99174 | 23158 ft | 339 kts | 245° |
| 2026-04-26 17:57 | 46.14606 | 1.96150 | 23157 ft | 339 kts | 245° |
| 2026-04-26 17:57 | 46.13555 | 1.93117 | 23158 ft | 339 kts | 245° |
| 2026-04-26 17:57 | 46.12503 | 1.90085 | 23154 ft | 339 kts | 245° |
| 2026-04-26 17:58 | 46.09349 | 1.81013 | 23150 ft | 338 kts | 245° |
| 2026-04-26 17:59 | 46.07240 | 1.74965 | 23156 ft | 338 kts | 245° |
| 2026-04-26 17:59 | 46.06186 | 1.71946 | 23157 ft | 338 kts | 245° |
| 2026-04-26 17:59 | 46.05132 | 1.68932 | 23153 ft | 338 kts | 245° |
| 2026-04-26 17:59 | 46.04074 | 1.65910 | 23155 ft | 338 kts | 245° |
| 2026-04-26 18:00 | 46.03014 | 1.62885 | 23160 ft | 339 kts | 245° |
| 2026-04-26 18:00 | 46.01957 | 1.59871 | 23156 ft | 339 kts | 245° |
| 2026-04-26 18:00 | 46.00898 | 1.56856 | 23154 ft | 339 kts | 245° |
| 2026-04-26 18:00 | 45.99838 | 1.53844 | 23156 ft | 339 kts | 245° |
| 2026-04-26 18:01 | 45.98776 | 1.50827 | 23156 ft | 339 kts | 245° |
| 2026-04-26 18:01 | 45.97711 | 1.47805 | 23155 ft | 339 kts | 245° |
| 2026-04-26 18:01 | 45.96648 | 1.44794 | 23155 ft | 339 kts | 245° |
| 2026-04-26 18:01 | 45.95582 | 1.41775 | 23157 ft | 339 kts | 245° |
| 2026-04-26 18:02 | 45.94521 | 1.38773 | 23156 ft | 339 kts | 245° |
| 2026-04-26 18:02 | 45.93811 | 1.36769 | 23156 ft | 339 kts | 245° |
| 2026-04-26 18:02 | 45.92395 | 1.32773 | 23152 ft | 338 kts | 244° |
| 2026-04-26 18:02 | 45.91318 | 1.29740 | 23153 ft | 338 kts | 244° |
| 2026-04-26 18:03 | 45.90255 | 1.26748 | 23153 ft | 338 kts | 244° |
| 2026-04-26 18:03 | 45.89187 | 1.23744 | 23158 ft | 337 kts | 244° |
| 2026-04-26 18:03 | 45.88134 | 1.20785 | 23157 ft | 337 kts | 244° |
| 2026-04-26 18:03 | 45.87074 | 1.17812 | 23156 ft | 337 kts | 244° |
| 2026-04-26 18:04 | 45.86008 | 1.14824 | 23158 ft | 336 kts | 244° |
| 2026-04-26 18:04 | 45.84947 | 1.11855 | 23160 ft | 336 kts | 244° |
| 2026-04-26 18:04 | 45.83883 | 1.08880 | 23159 ft | 336 kts | 244° |
| 2026-04-26 18:05 | 45.81667 | 1.02992 | 23138 ft | 337 kts | 235° |
| 2026-04-26 18:05 | 45.79960 | 1.00720 | 23185 ft | 337 kts | 219° |
| 2026-04-26 18:05 | 45.78074 | 0.98723 | 23167 ft | 338 kts | 218° |
| 2026-04-26 18:05 | 45.76177 | 0.96731 | 23156 ft | 338 kts | 218° |
| 2026-04-26 18:06 | 45.74291 | 0.94755 | 23152 ft | 338 kts | 218° |
| 2026-04-26 18:06 | 45.72380 | 0.92750 | 23149 ft | 339 kts | 218° |
| 2026-04-26 18:06 | 45.70483 | 0.90760 | 23145 ft | 339 kts | 218° |
| 2026-04-26 18:06 | 45.68584 | 0.88766 | 23146 ft | 339 kts | 218° |
| 2026-04-26 18:07 | 45.66711 | 0.86800 | 23141 ft | 339 kts | 218° |
| 2026-04-26 18:07 | 45.64811 | 0.84805 | 23136 ft | 339 kts | 218° |
| 2026-04-26 18:07 | 45.62908 | 0.82808 | 23134 ft | 340 kts | 218° |
| 2026-04-26 18:07 | 45.61637 | 0.81475 | 23133 ft | 340 kts | 218° |
| 2026-04-26 18:08 | 45.59092 | 0.78807 | 23130 ft | 342 kts | 218° |
| 2026-04-26 18:08 | 45.57169 | 0.76793 | 23133 ft | 342 kts | 218° |
| 2026-04-26 18:08 | 45.55249 | 0.74784 | 23125 ft | 343 kts | 218° |
| 2026-04-26 18:08 | 45.53325 | 0.72772 | 23124 ft | 343 kts | 218° |
| 2026-04-26 18:09 | 45.51423 | 0.70785 | 23121 ft | 344 kts | 218° |
| 2026-04-26 18:09 | 45.49492 | 0.68770 | 23122 ft | 344 kts | 218° |
| 2026-04-26 18:09 | 45.47563 | 0.66757 | 23120 ft | 344 kts | 218° |
| 2026-04-26 18:09 | 45.45632 | 0.64740 | 23119 ft | 344 kts | 218° |
| 2026-04-26 18:10 | 45.43712 | 0.62735 | 23119 ft | 344 kts | 218° |
| 2026-04-26 18:10 | 45.41788 | 0.60727 | 23114 ft | 344 kts | 218° |
| 2026-04-26 18:10 | 45.39858 | 0.58716 | 23117 ft | 344 kts | 218° |
| 2026-04-26 18:10 | 45.37933 | 0.56711 | 23123 ft | 344 kts | 218° |
| 2026-04-26 18:11 | 45.36009 | 0.54710 | 23123 ft | 343 kts | 218° |
| 2026-04-26 18:11 | 45.34085 | 0.52709 | 23123 ft | 343 kts | 218° |
| 2026-04-26 18:11 | 45.32157 | 0.50707 | 23116 ft | 343 kts | 218° |
| 2026-04-26 18:11 | 45.30214 | 0.48690 | 23114 ft | 343 kts | 218° |
| 2026-04-26 18:12 | 45.28313 | 0.46720 | 23111 ft | 343 kts | 218° |
| 2026-04-26 18:12 | 45.26371 | 0.44707 | 23112 ft | 343 kts | 218° |
| 2026-04-26 18:12 | 45.24460 | 0.42730 | 23116 ft | 343 kts | 218° |
| 2026-04-26 18:12 | 45.22533 | 0.40736 | 23109 ft | 343 kts | 218° |
| 2026-04-26 18:13 | 45.20602 | 0.38741 | 23113 ft | 343 kts | 218° |
| 2026-04-26 18:13 | 45.18661 | 0.36737 | 23113 ft | 343 kts | 218° |
| 2026-04-26 18:13 | 45.16741 | 0.34756 | 23113 ft | 343 kts | 217° |
| 2026-04-26 18:13 | 45.15446 | 0.33421 | 23112 ft | 344 kts | 217° |
| 2026-04-26 18:14 | 45.12870 | 0.30768 | 23111 ft | 344 kts | 217° |
| 2026-04-26 18:14 | 45.10937 | 0.28779 | 23115 ft | 344 kts | 217° |
| 2026-04-26 18:14 | 45.09008 | 0.26797 | 23114 ft | 344 kts | 217° |
| 2026-04-26 18:14 | 45.07078 | 0.24814 | 23110 ft | 344 kts | 217° |
| 2026-04-26 18:15 | 45.05154 | 0.22840 | 23113 ft | 344 kts | 217° |
| 2026-04-26 18:15 | 45.03236 | 0.20874 | 23113 ft | 343 kts | 217° |
| 2026-04-26 18:15 | 45.01297 | 0.18887 | 23115 ft | 343 kts | 217° |
| 2026-04-26 18:15 | 44.99353 | 0.16897 | 23115 ft | 343 kts | 217° |
| 2026-04-26 18:16 | 44.97424 | 0.14924 | 23112 ft | 343 kts | 217° |
| 2026-04-26 18:16 | 44.93559 | 0.10969 | 23110 ft | 344 kts | 217° |
| 2026-04-26 18:16 | 44.91632 | 0.09001 | 23112 ft | 344 kts | 217° |
| 2026-04-26 18:17 | 44.89693 | 0.07020 | 23113 ft | 344 kts | 217° |
| 2026-04-26 18:17 | 44.87775 | 0.05065 | 23114 ft | 344 kts | 217° |
| 2026-04-26 18:17 | 44.85828 | 0.03080 | 23116 ft | 344 kts | 217° |
| 2026-04-26 18:17 | 44.83900 | 0.01116 | 23115 ft | 344 kts | 217° |
| 2026-04-26 18:18 | 44.81950 | -0.00867 | 23116 ft | 344 kts | 217° |
| 2026-04-26 18:18 | 44.80024 | -0.02826 | 23115 ft | 344 kts | 217° |
| 2026-04-26 18:18 | 44.78099 | -0.04781 | 23117 ft | 344 kts | 217° |
| 2026-04-26 18:18 | 44.76142 | -0.06767 | 23118 ft | 344 kts | 217° |
| 2026-04-26 18:19 | 44.74209 | -0.08726 | 23119 ft | 343 kts | 217° |
| 2026-04-26 18:19 | 44.72294 | -0.10667 | 23115 ft | 343 kts | 217° |
| 2026-04-26 18:19 | 44.70341 | -0.12644 | 23119 ft | 343 kts | 217° |
| 2026-04-26 18:19 | 44.68405 | -0.14602 | 23118 ft | 344 kts | 217° |
| 2026-04-26 18:20 | 44.66499 | -0.16574 | 23119 ft | 343 kts | 219° |
| 2026-04-26 18:20 | 44.64636 | -0.18691 | 23118 ft | 343 kts | 220° |
| 2026-04-26 18:20 | 44.62796 | -0.20811 | 23116 ft | 343 kts | 220° |
| 2026-04-26 18:20 | 44.61563 | -0.22226 | 23118 ft | 344 kts | 220° |
| 2026-04-26 18:21 | 44.59104 | -0.25042 | 23117 ft | 344 kts | 220° |
| 2026-04-26 18:21 | 44.57251 | -0.27156 | 23120 ft | 344 kts | 220° |
| 2026-04-26 18:21 | 44.55393 | -0.29271 | 23118 ft | 344 kts | 220° |
| 2026-04-26 18:21 | 44.53549 | -0.31365 | 23115 ft | 344 kts | 220° |
| 2026-04-26 18:22 | 44.51689 | -0.33475 | 23119 ft | 344 kts | 220° |
| 2026-04-26 18:22 | 44.49824 | -0.35587 | 23119 ft | 344 kts | 220° |
| 2026-04-26 18:22 | 44.47965 | -0.37689 | 23119 ft | 344 kts | 220° |
| 2026-04-26 18:22 | 44.46100 | -0.39796 | 23118 ft | 345 kts | 220° |
| 2026-04-26 18:23 | 44.44239 | -0.41896 | 23115 ft | 345 kts | 220° |
| 2026-04-26 18:23 | 44.42377 | -0.43995 | 23118 ft | 345 kts | 220° |
| 2026-04-26 18:23 | 44.40502 | -0.46107 | 23120 ft | 346 kts | 220° |
| 2026-04-26 18:23 | 44.38615 | -0.48229 | 23117 ft | 346 kts | 220° |
| 2026-04-26 18:24 | 44.36746 | -0.50330 | 23116 ft | 346 kts | 220° |
| 2026-04-26 18:24 | 44.34877 | -0.52430 | 23122 ft | 346 kts | 220° |
| 2026-04-26 18:24 | 44.33017 | -0.54517 | 23120 ft | 345 kts | 220° |
| 2026-04-26 18:24 | 44.31144 | -0.56616 | 23118 ft | 345 kts | 220° |
| 2026-04-26 18:25 | 44.29278 | -0.58706 | 23119 ft | 344 kts | 219° |
| 2026-04-26 18:25 | 44.27403 | -0.60804 | 23116 ft | 344 kts | 219° |
| 2026-04-26 18:25 | 44.25543 | -0.62884 | 23125 ft | 343 kts | 219° |
| 2026-04-26 18:25 | 44.23695 | -0.64948 | 22941 ft | 341 kts | 219° |
| 2026-04-26 18:26 | 44.21845 | -0.67007 | 22583 ft | 338 kts | 218° |
| 2026-04-26 18:26 | 44.20024 | -0.69034 | 22178 ft | 337 kts | 218° |
| 2026-04-26 18:26 | 44.18201 | -0.71113 | 21748 ft | 336 kts | 219° |
| 2026-04-26 18:26 | 44.16436 | -0.73180 | 21328 ft | 336 kts | 220° |
| 2026-04-26 18:27 | 44.14641 | -0.75285 | 20897 ft | 335 kts | 220° |
| 2026-04-26 18:27 | 44.12871 | -0.77356 | 20474 ft | 335 kts | 220° |
| 2026-04-26 18:27 | 44.11078 | -0.79452 | 20043 ft | 334 kts | 220° |
| 2026-04-26 18:27 | 44.09323 | -0.81500 | 19627 ft | 333 kts | 220° |
| 2026-04-26 18:28 | 44.07553 | -0.83562 | 19210 ft | 332 kts | 220° |
| 2026-04-26 18:28 | 44.05774 | -0.85633 | 18785 ft | 331 kts | 220° |
| 2026-04-26 18:28 | 44.04025 | -0.87667 | 18369 ft | 330 kts | 220° |
| 2026-04-26 18:28 | 44.02280 | -0.89694 | 17958 ft | 329 kts | 220° |
| 2026-04-26 18:29 | 44.00523 | -0.91733 | 17536 ft | 328 kts | 220° |
| 2026-04-26 18:29 | 43.98794 | -0.93738 | 17132 ft | 326 kts | 220° |
| 2026-04-26 18:29 | 43.97062 | -0.95745 | 16713 ft | 325 kts | 220° |
| 2026-04-26 18:29 | 43.95337 | -0.97741 | 16313 ft | 324 kts | 220° |
| 2026-04-26 18:30 | 43.93607 | -0.99742 | 15894 ft | 323 kts | 220° |
| 2026-04-26 18:30 | 43.91874 | -1.01733 | 15480 ft | 318 kts | 219° |
| 2026-04-26 18:30 | 43.90162 | -1.03559 | 15073 ft | 306 kts | 217° |
| 2026-04-26 18:30 | 43.88482 | -1.05307 | 14671 ft | 294 kts | 217° |
| 2026-04-26 18:31 | 43.86886 | -1.06969 | 14317 ft | 282 kts | 217° |
| 2026-04-26 18:31 | 43.85352 | -1.08568 | 13972 ft | 272 kts | 217° |
| 2026-04-26 18:31 | 43.83876 | -1.10109 | 13635 ft | 262 kts | 217° |
| 2026-04-26 18:31 | 43.82452 | -1.11597 | 13320 ft | 252 kts | 218° |
| 2026-04-26 18:32 | 43.81090 | -1.13021 | 12994 ft | 241 kts | 218° |
| 2026-04-26 18:32 | 43.79783 | -1.14387 | 12691 ft | 229 kts | 218° |
| 2026-04-26 18:32 | 43.78551 | -1.15675 | 12405 ft | 215 kts | 218° |
| 2026-04-26 18:32 | 43.77400 | -1.16877 | 12142 ft | 206 kts | 218° |
| 2026-04-26 18:33 | 43.76159 | -1.18205 | 11922 ft | 244 kts | 219° |
| 2026-04-26 18:33 | 43.74694 | -1.19688 | 11585 ft | 279 kts | 212° |
| 2026-04-26 18:33 | 43.72826 | -1.20491 | 11225 ft | 282 kts | 190° |
| 2026-04-26 18:33 | 43.70879 | -1.20878 | 10845 ft | 285 kts | 189° |
| 2026-04-26 18:34 | 43.68917 | -1.21273 | 10474 ft | 286 kts | 189° |
| 2026-04-26 18:34 | 43.66948 | -1.21687 | 10110 ft | 287 kts | 190° |
| 2026-04-26 18:34 | 43.64970 | -1.22118 | 9737 ft | 288 kts | 190° |
| 2026-04-26 18:34 | 43.63023 | -1.22550 | 9355 ft | 277 kts | 190° |
| 2026-04-26 18:35 | 43.61164 | -1.22967 | 9005 ft | 266 kts | 190° |
| 2026-04-26 18:35 | 43.59376 | -1.23372 | 8677 ft | 255 kts | 190° |
| 2026-04-26 18:35 | 43.57679 | -1.23758 | 8369 ft | 245 kts | 190° |
| 2026-04-26 18:35 | 43.56030 | -1.24135 | 8054 ft | 234 kts | 190° |
| 2026-04-26 18:36 | 43.54457 | -1.24476 | 7767 ft | 223 kts | 185° |
| 2026-04-26 18:36 | 43.52958 | -1.24174 | 7137 ft | 228 kts | 156° |
| 2026-04-26 18:36 | 43.51706 | -1.22817 | 6275 ft | 240 kts | 126° |
| 2026-04-26 18:36 | 43.50953 | -1.20724 | 5553 ft | 244 kts | 110° |
| 2026-04-26 18:37 | 43.50235 | -1.18704 | 5306 ft | 239 kts | 125° |
| 2026-04-26 18:37 | 43.48899 | -1.17267 | 4831 ft | 253 kts | 155° |
| 2026-04-26 18:37 | 43.47185 | -1.16878 | 4467 ft | 247 kts | 184° |
| 2026-04-26 18:37 | 43.45615 | -1.17632 | 4076 ft | 240 kts | 216° |
| 2026-04-26 18:38 | 43.44565 | -1.19337 | 3668 ft | 233 kts | 244° |
| 2026-04-26 18:38 | 43.44374 | -1.21443 | 3211 ft | 224 kts | 285° |
| 2026-04-26 18:38 | 43.45196 | -1.23203 | 2568 ft | 224 kts | 326° |
| 2026-04-26 18:38 | 43.46520 | -1.24287 | 1953 ft | 225 kts | 322° |
| 2026-04-26 18:39 | 43.47350 | -1.26006 | 1724 ft | 211 kts | 284° |
| 2026-04-26 18:39 | 43.47448 | -1.27916 | 1704 ft | 192 kts | 272° |
| 2026-04-26 18:39 | 43.47490 | -1.29632 | 2030 ft | 200 kts | 276° |
| 2026-04-26 18:39 | 43.47494 | -1.29713 | 2040 ft | 201 kts | 276° |
| 2026-04-26 18:40 | 43.47514 | -1.31698 | 2205 ft | 207 kts | 265° |
| 2026-04-26 18:40 | 43.47339 | -1.33579 | 2327 ft | 187 kts | 263° |
| 2026-04-26 18:40 | 43.47193 | -1.35353 | 2286 ft | 190 kts | 266° |
| 2026-04-26 18:40 | 43.47066 | -1.37218 | 2178 ft | 202 kts | 267° |
| 2026-04-26 18:41 | 43.46984 | -1.39066 | 1928 ft | 189 kts | 269° |
| 2026-04-26 18:41 | 43.46932 | -1.40824 | 1556 ft | 177 kts | 271° |
| 2026-04-26 18:41 | 43.46929 | -1.42489 | 1525 ft | 175 kts | 274° |
| 2026-04-26 18:41 | 43.46936 | -1.44013 | 1620 ft | 147 kts | 274° |
| 2026-04-26 18:42 | 43.46915 | -1.45403 | 1222 ft | 141 kts | 270° |
| 2026-04-26 18:42 | 43.46889 | -1.46748 | 957 ft | 144 kts | 272° |
| 2026-04-26 18:42 | 43.46886 | -1.48097 | 606 ft | 136 kts | 272° |
| 2026-04-26 18:42 | 43.46876 | -1.49401 | 536 ft | 135 kts | 267° |
| 2026-04-26 18:43 | 43.46852 | -1.50664 | 310 ft | 130 kts | 272° |
| 2026-04-26 18:43 | 43.46845 | -1.51752 | 223 ft | 84 kts | 270° |
| 2026-04-26 18:43 | 43.46839 | -1.52336 | 229 ft | 46 kts | 271° |
| 2026-04-26 18:43 | 43.46839 | -1.52714 | 237 ft | 33 kts | 268° |
| 2026-04-26 18:44 | 43.46834 | -1.53018 | 245 ft | 31 kts | 272° |
| 2026-04-26 18:44 | 43.46921 | -1.53176 | 243 ft | 17 kts | 336° |
| 2026-04-26 18:44 | 43.47020 | -1.53165 | 242 ft | 12 kts | 21° |
| 2026-04-26 18:44 | 43.47054 | -1.53083 | 241 ft | 9 kts | 93° |
| 2026-04-26 18:45 | 43.47067 | -1.53000 | 241 ft | 6 kts | 22° |
| 2026-04-26 18:45 | 43.47101 | -1.53000 | 240 ft | 3 kts | 0° |
| 2026-04-26 18:45 | 43.47125 | -1.53001 | 240 ft | 1 kts | 355° |
| 2026-04-26 18:45 | 43.47126 | -1.53001 | 240 ft | 0 kts | 0° |